Terminal Aerodrome Forecast
Issued by NWS

Home | Current Version | Previous Version | Text Only | Print | Product List | Glossary On
Versions: 1 2 3 4 5 6 7 8 9 10 11 12 13
000
FTUS43 KIND 251100
TAFBMG
TAF
KBMG 251120Z 2512/2612 12009KT P6SM VCSH OVC026
     FM251400 12010KT 4SM -RA BR OVC015
     FM251900 09010KT 4SM -RA BR VCTS BKN008CB OVC015
     FM260000 05010KT 6SM BR VCSH OVC008
     FM260300 03010KT P6SM OVC016
     FM261000 03009KT P6SM SCT020
      AMD LTD TO CLD VIS AND WIND TIL 251300=

USA.gov is the U.S. government's official web portal to all federal, state and local government web resources and services.